Time;durP1;ratioP1;P1;durP2;ratioP2;P2;SDS_P1;SDS_P2;PMS_P1;PMS_P2;Temp;Humidity;BMP_temperature;BMP_pressure;BME280_temperature;BME280_humidity;BME280_pressure;Samples;Min_cycle;Max_cycle;Signal;HPM_P1;HPM_P2
2021/04/06 00:00:22;;;;;;;1.15;0.20;;;;;;;8.02;54.04;99803.25;4934192;28;116191;-63
2021/04/06 00:02:56;;;;;;;1.60;0.20;;;;;;;8.00;54.08;99796.53;4944436;28;97866;-63
2021/04/06 00:05:22;;;;;;;1.88;0.10;;;;;;;8.00;53.80;99809.97;4940512;28;111777;-63
2021/04/06 00:07:49;;;;;;;1.00;0.20;;;;;;;7.97;53.76;99805.91;4924848;28;99570;-59
2021/04/06 00:10:41;;;;;;;2.15;0.20;;;;;;;7.94;54.19;99806.47;4941499;28;98179;-59
2021/04/06 00:13:07;;;;;;;2.38;0.20;;;;;;;7.98;53.90;99814.81;4911635;28;98198;-59
2021/04/06 00:15:34;;;;;;;1.70;0.20;;;;;;;7.97;53.78;99815.84;4825227;28;128827;-63
2021/04/06 00:18:01;;;;;;;2.65;0.20;;;;;;;7.91;53.95;99809.69;4843047;28;108040;-60
2021/04/06 00:20:28;;;;;;;1.58;0.20;;;;;;;7.93;53.95;99814.78;4841651;28;98198;-63
2021/04/06 00:22:56;;;;;;;1.92;0.20;;;;;;;7.91;54.01;99815.03;4842724;28;97881;-59
2021/04/06 00:25:32;;;;;;;2.17;0.28;;;;;;;7.94;54.21;99819.88;4857768;28;98556;-63
2021/04/06 00:27:58;;;;;;;2.15;0.22;;;;;;;7.91;53.86;99816.94;4843236;28;99186;-63
2021/04/06 00:30:28;;;;;;;1.70;0.20;;;;;;;7.87;54.22;99822.81;4916783;28;98268;-59
2021/04/06 00:32:58;;;;;;;1.30;0.20;;;;;;;7.85;54.13;99822.25;4943504;28;98506;-59
2021/04/06 00:35:27;;;;;;;2.30;0.20;;;;;;;7.86;54.35;99831.16;4939788;28;98597;-63
2021/04/06 00:37:54;;;;;;;1.20;0.20;;;;;;;7.83;53.87;99831.66;4943485;28;98238;-63
2021/04/06 00:40:20;;;;;;;1.73;0.20;;;;;;;7.82;54.40;99827.34;4940229;28;98351;-63
2021/04/06 00:42:46;;;;;;;1.33;0.20;;;;;;;7.78;53.95;99832.47;4825397;28;115020;-60
2021/04/06 00:45:20;;;;;;;2.28;0.30;;;;;;;7.80;53.95;99835.66;4841441;28;98520;-59
2021/04/06 00:47:46;;;;;;;3.40;0.35;;;;;;;7.82;53.99;99838.91;4899532;28;98555;-63
2021/04/06 00:50:14;;;;;;;2.13;0.20;;;;;;;7.77;54.29;99838.06;4922451;28;121410;-60
2021/04/06 00:52:44;;;;;;;1.80;0.20;;;;;;;7.79;53.99;99839.44;4942856;28;97991;-60
2021/04/06 00:55:17;;;;;;;2.20;0.20;;;;;;;7.81;53.83;99834.59;4847805;28;98360;-60
2021/04/06 00:57:43;;;;;;;2.08;0.30;;;;;;;7.82;53.74;99838.09;4841318;28;98480;-63
2021/04/06 01:00:19;;;;;;;1.65;0.20;;;;;;;7.84;54.08;99844.00;4849261;28;98547;-63
2021/04/06 01:03:07;;;;;;;2.22;0.20;;;;;;;7.76;54.22;99839.94;4843154;28;98197;-59
2021/04/06 01:06:02;;;;;;;2.20;0.20;;;;;;;7.77;54.27;99841.56;4919601;28;99429;-63
2021/04/06 01:08:29;;;;;;;2.35;0.20;;;;;;;7.76;54.41;99844.53;4940470;28;98200;-59
2021/04/06 01:10:55;;;;;;;1.42;0.30;;;;;;;7.74;53.90;99844.78;4848815;28;105148;-63
2021/04/06 01:13:23;;;;;;;1.58;0.20;;;;;;;7.81;53.83;99837.28;4841642;28;98047;-63
2021/04/06 01:15:52;;;;;;;1.17;0.20;;;;;;;7.81;53.97;99842.66;4841449;28;98523;-63
2021/04/06 01:18:18;;;;;;;1.95;0.20;;;;;;;7.80;53.87;99837.56;4827222;28;98314;-60
2021/04/06 01:20:44;;;;;;;1.33;0.20;;;;;;;7.81;53.92;99834.59;4843319;28;98002;-63
2021/04/06 01:23:11;;;;;;;1.60;0.20;;;;;;;7.82;53.84;99836.22;4864322;28;97843;-59
2021/04/06 01:25:44;;;;;;;1.63;0.22;;;;;;;7.78;53.67;99837.00;4840599;28;98761;-63
2021/04/06 01:28:10;;;;;;;1.88;0.20;;;;;;;7.77;53.81;99838.06;4843631;28;99250;-60
2021/04/06 01:30:48;;;;;;;2.45;0.20;;;;;;;7.78;53.74;99829.78;4841570;28;112233;-63
2021/04/06 01:33:15;;;;;;;2.38;0.20;;;;;;;7.79;54.04;99830.59;4843417;28;97688;-62
2021/04/06 01:35:54;;;;;;;1.55;0.20;;;;;;;7.80;53.98;99829.50;4843117;28;99569;-62
2021/04/06 01:38:25;;;;;;;2.03;0.20;;;;;;;7.74;53.74;99830.53;4850577;28;99095;-59
2021/04/06 01:40:52;;;;;;;1.98;0.30;;;;;;;7.78;53.64;99831.63;4841055;28;98156;-59
2021/04/06 01:43:23;;;;;;;2.22;0.20;;;;;;;7.78;53.99;99829.78;4843964;28;97981;-59
2021/04/06 01:45:53;;;;;;;1.45;0.20;;;;;;;7.74;53.67;99828.69;4842222;28;98954;-62
2021/04/06 01:48:19;;;;;;;1.13;0.20;;;;;;;7.74;53.90;99825.19;4841154;28;99010;-61
2021/04/06 01:50:53;;;;;;;1.67;0.20;;;;;;;7.70;53.81;99811.47;4842129;28;120934;-62
2021/04/06 01:53:20;;;;;;;2.40;0.30;;;;;;;7.74;53.84;99817.13;4842778;28;97905;-63
2021/04/06 01:55:55;;;;;;;2.05;0.20;;;;;;;7.73;53.99;99813.66;4843031;28;99151;-60
2021/04/06 01:58:23;;;;;;;1.92;0.20;;;;;;;7.75;53.55;99830.31;4870745;28;98270;-63
2021/04/06 02:01:12;;;;;;;1.35;0.22;;;;;;;7.70;54.40;99822.22;4840399;28;98013;-63
2021/04/06 02:03:50;;;;;;;2.08;0.20;;;;;;;7.69;54.29;99828.66;4849150;28;97936;-60
2021/04/06 02:06:16;;;;;;;1.77;0.20;;;;;;;7.66;53.51;99823.00;4842957;28;98460;-59
2021/04/06 02:08:49;;;;;;;2.08;0.20;;;;;;;7.69;54.30;99819.81;4842620;28;128389;-59
2021/04/06 02:11:32;;;;;;;1.60;0.20;;;;;;;7.63;54.23;99824.34;4840713;28;98126;-59
2021/04/06 02:14:22;;;;;;;1.30;0.17;;;;;;;7.60;53.88;99827.56;4868240;28;98166;-59
2021/04/06 02:16:52;;;;;;;0.90;0.20;;;;;;;7.65;54.10;99821.41;4936698;28;124171;-63
2021/04/06 02:19:24;;;;;;;1.33;0.20;;;;;;;7.59;53.96;99821.41;4846975;28;98372;-59
2021/04/06 02:21:52;;;;;;;1.25;0.10;;;;;;;7.58;54.50;99818.97;4842489;28;98064;-63
2021/04/06 02:24:39;;;;;;;2.58;0.20;;;;;;;7.53;54.59;99816.25;4841830;28;98007;-59
2021/04/06 02:27:18;;;;;;;2.03;0.20;;;;;;;7.54;54.32;99816.00;4934289;28;98595;-63
2021/04/06 02:29:50;;;;;;;1.38;0.20;;;;;;;7.50;54.59;99816.78;4891004;28;98351;-59
2021/04/06 02:32:24;;;;;;;1.55;0.20;;;;;;;7.52;54.85;99822.72;4840185;28;123351;-59
2021/04/06 02:34:54;;;;;;;1.13;0.20;;;;;;;7.45;54.48;99825.63;4842600;28;98008;-59
2021/04/06 02:37:28;;;;;;;0.85;0.10;;;;;;;7.47;54.73;99828.88;4842078;28;98626;-63
2021/04/06 02:39:57;;;;;;;1.10;0.20;;;;;;;7.51;54.79;99818.41;4842572;28;98384;-62
2021/04/06 02:42:46;;;;;;;1.23;0.15;;;;;;;7.48;54.73;99825.09;4841702;28;98033;-63
2021/04/06 02:45:29;;;;;;;2.22;0.17;;;;;;;7.50;54.54;99822.16;4842770;28;97834;-59
2021/04/06 02:48:09;;;;;;;1.33;0.10;;;;;;;7.42;54.36;99819.97;4843671;28;98224;-63
2021/04/06 02:50:36;;;;;;;1.92;0.30;;;;;;;7.51;54.89;99823.78;4840327;28;98219;-59
2021/04/06 02:53:08;;;;;;;1.35;0.20;;;;;;;7.43;54.70;99819.72;4839815;28;98406;-63
2021/04/06 02:55:35;;;;;;;;;;;;;;;7.41;54.95;99813.00;4842753;28;97965;-60
2021/04/06 02:58:01;;;;;;;1.63;0.20;;;;;;;7.45;54.51;99817.56;4842476;28;98384;-63
2021/04/06 03:00:27;;;;;;;3.45;0.20;;;;;;;7.46;54.51;99821.06;4841676;28;115854;-63
2021/04/06 03:02:57;;;;;;;1.40;0.20;;;;;;;7.47;54.87;99826.19;4841419;28;97880;-60
2021/04/06 03:05:34;;;;;;;2.70;0.20;;;;;;;7.48;54.56;99821.63;4911890;28;97813;-59
2021/04/06 03:08:00;;;;;;;1.95;0.10;;;;;;;7.42;54.43;99820.78;4940989;28;97763;-63
2021/04/06 03:10:30;;;;;;;1.98;0.20;;;;;;;7.44;54.34;99821.34;4938348;28;99792;-59
2021/04/06 03:12:57;;;;;;;1.60;0.20;;;;;;;7.39;54.66;99815.97;4939273;28;111961;-63
2021/04/06 03:15:25;;;;;;;1.80;0.10;;;;;;;7.40;54.98;99816.75;4938386;28;98059;-63
2021/04/06 03:17:55;;;;;;;1.88;0.20;;;;;;;7.39;54.24;99824.00;4937979;28;98768;-59
2021/04/06 03:20:25;;;;;;;1.00;0.10;;;;;;;7.38;54.67;99828.53;4940551;28;98204;-63
2021/04/06 03:22:53;;;;;;;0.80;0.10;;;;;;;7.38;54.84;99815.13;4886731;28;98978;-63
2021/04/06 03:25:19;;;;;;;2.35;0.20;;;;;;;7.36;54.78;99816.47;4840431;28;98184;-59
2021/04/06 03:27:51;;;;;;;1.15;0.20;;;;;;;7.34;54.63;99823.97;4841175;28;98139;-59
2021/04/06 03:30:37;;;;;;;1.35;0.20;;;;;;;7.35;55.04;99814.88;4851077;28;98278;-63
2021/04/06 03:33:05;;;;;;;1.77;0.20;;;;;;;7.37;54.54;99820.75;4842213;28;98688;-59
2021/04/06 03:35:32;;;;;;;1.50;0.17;;;;;;;7.34;54.80;99819.41;4844522;28;98064;-62
2021/04/06 03:37:59;;;;;;;2.90;0.20;;;;;;;7.36;54.79;99819.16;4842850;28;98112;-59
2021/04/06 03:40:32;;;;;;;1.42;0.10;;;;;;;7.36;54.40;99816.47;4843609;28;97907;-59
2021/04/06 03:43:25;;;;;;;1.80;0.10;;;;;;;7.36;54.85;99824.53;4828317;28;98502;-59
2021/04/06 03:46:04;;;;;;;1.33;0.20;;;;;;;7.35;54.39;99820.22;4841484;28;117027;-62
2021/04/06 03:48:33;;;;;;;2.70;0.20;;;;;;;7.36;54.78;99814.59;4881196;28;98065;-63
2021/04/06 03:50:59;;;;;;;1.92;0.10;;;;;;;7.33;54.37;99817.78;4942928;28;99129;-59
2021/04/06 03:53:38;;;;;;;1.02;0.17;;;;;;;7.32;55.08;99818.88;4868911;28;98271;-60
2021/04/06 03:56:12;;;;;;;2.38;0.20;;;;;;;7.35;55.07;99820.22;4858868;28;97841;-59
2021/04/06 03:58:42;;;;;;;2.08;0.20;;;;;;;7.35;54.39;99825.59;4863361;28;98127;-63
2021/04/06 04:01:08;;;;;;;1.75;0.17;;;;;;;7.36;54.39;99824.53;4939482;28;98634;-63
2021/04/06 04:03:35;;;;;;;1.27;0.10;;;;;;;7.37;54.45;99818.88;4950459;28;113919;-59
2021/04/06 04:06:01;;;;;;;1.52;0.20;;;;;;;7.36;54.32;99819.16;4957545;28;110649;-59
2021/04/06 04:08:27;;;;;;;1.70;0.15;;;;;;;7.39;54.29;99815.97;4935535;28;99169;-63
2021/04/06 04:10:53;;;;;;;1.30;0.10;;;;;;;7.38;54.22;99811.63;4941728;28;117116;-63
2021/04/06 04:13:20;;;;;;;2.15;0.10;;;;;;;7.39;54.56;99802.56;4942873;28;98064;-63
2021/04/06 04:15:46;;;;;;;1.92;0.20;;;;;;;7.37;54.11;99800.09;4887732;28;97934;-63
2021/04/06 04:18:12;;;;;;;1.02;0.20;;;;;;;7.39;54.55;99813.28;4844617;28;98051;-59
2021/04/06 04:20:38;;;;;;;1.63;0.20;;;;;;;7.39;54.03;99805.22;4841798;28;98792;-62
2021/04/06 04:23:04;;;;;;;1.48;0.15;;;;;;;7.37;54.64;99800.09;4843770;28;114779;-63
2021/04/06 04:25:30;;;;;;;1.65;0.22;;;;;;;7.37;54.42;99805.47;4843333;28;97752;-62
2021/04/06 04:27:56;;;;;;;1.88;0.25;;;;;;;7.33;54.27;99803.59;4907083;28;121737;-62
2021/04/06 04:30:42;;;;;;;1.65;0.20;;;;;;;7.39;54.42;99797.19;4937144;28;126806;-60
2021/04/06 04:33:10;;;;;;;2.05;0.20;;;;;;;7.40;54.20;99804.16;4843548;28;98727;-59
2021/04/06 04:35:36;;;;;;;1.42;0.20;;;;;;;7.43;54.03;99803.63;4842835;28;98043;-59
2021/04/06 04:38:04;;;;;;;1.40;0.20;;;;;;;7.41;54.45;99805.75;4843989;28;98332;-59
2021/04/06 04:40:30;;;;;;;0.90;0.20;;;;;;;7.44;54.40;99809.81;4843706;28;98860;-61
2021/04/06 04:42:56;;;;;;;1.65;0.20;;;;;;;7.45;54.02;99804.16;4852173;28;111599;-63
2021/04/06 04:45:22;;;;;;;1.83;0.30;;;;;;;7.44;54.23;99799.06;4942549;28;97702;-59
2021/04/06 04:47:49;;;;;;;2.45;0.20;;;;;;;7.45;54.14;99795.31;4940526;28;114785;-59
2021/04/06 04:50:16;;;;;;;1.48;0.25;;;;;;;7.46;54.00;99796.91;4941446;28;98616;-62
2021/04/06 04:52:46;;;;;;;2.03;0.20;;;;;;;7.42;53.84;99790.47;4942437;28;98031;-63
2021/04/06 04:55:17;;;;;;;2.17;0.30;;;;;;;7.44;54.52;99788.34;4941648;28;97960;-63
2021/04/06 04:57:44;;;;;;;1.42;0.20;;;;;;;7.47;54.36;99791.31;4941483;28;98606;-59
2021/04/06 05:00:11;;;;;;;1.30;0.30;;;;;;;7.50;53.84;99792.66;4943211;28;98743;-60
2021/04/06 05:02:37;;;;;;;1.27;0.20;;;;;;;7.46;53.95;99792.38;4886478;28;110740;-59
2021/04/06 05:05:05;;;;;;;1.30;0.20;;;;;;;7.46;54.33;99789.69;4943726;28;98117;-59
2021/04/06 05:07:31;;;;;;;0.75;0.20;;;;;;;7.49;53.58;99783.00;4940307;28;115493;-59
2021/04/06 05:09:57;;;;;;;1.52;0.30;;;;;;;7.52;53.63;99780.59;4941542;28;123805;-63
2021/04/06 05:12:23;;;;;;;1.73;0.30;;;;;;;7.59;53.64;99785.72;4934916;28;98070;-59
2021/04/06 05:14:50;;;;;;;1.80;0.30;;;;;;;7.58;53.43;99787.59;4941761;28;98102;-63
2021/04/06 05:17:16;;;;;;;2.03;0.30;;;;;;;7.65;53.91;99791.91;4940365;28;97919;-60
2021/04/06 05:19:43;;;;;;;1.60;0.30;;;;;;;7.74;53.78;99784.94;4941773;28;98520;-59
2021/04/06 05:22:09;;;;;;;1.10;0.20;;;;;;;7.82;53.55;99787.09;4941763;28;97739;-59
2021/04/06 05:24:35;;;;;;;1.25;0.30;;;;;;;7.85;53.10;99790.06;4941648;28;97752;-62
2021/04/06 05:27:02;;;;;;;2.30;0.25;;;;;;;8.01;52.97;99787.41;4941975;28;99211;-59
2021/04/06 05:29:28;;;;;;;1.77;0.30;;;;;;;8.18;53.20;99779.94;4941563;28;111365;-65
2021/04/06 05:31:54;;;;;;;2.45;0.40;;;;;;;8.28;52.41;99782.59;4934342;28;125598;-59
2021/04/06 05:34:20;;;;;;;1.52;0.40;;;;;;;8.37;52.22;99774.84;4942276;28;97796;-63
2021/04/06 05:36:46;;;;;;;1.92;0.40;;;;;;;8.50;52.25;99777.00;4940502;28;105683;-62
2021/04/06 05:39:12;;;;;;;2.00;0.50;;;;;;;8.57;52.00;99771.34;4936632;28;98611;-59
2021/04/06 05:41:43;;;;;;;3.03;0.40;;;;;;;8.70;51.03;99768.09;4840364;28;117818;-60
2021/04/06 05:44:09;;;;;;;1.98;0.60;;;;;;;8.82;51.15;99770.50;4837946;28;100108;-60
2021/04/06 05:46:36;;;;;;;1.75;0.60;;;;;;;9.00;50.84;99761.84;4841556;28;98438;-60
2021/04/06 05:49:10;;;;;;;1.90;0.60;;;;;;;9.14;50.84;99766.63;4857578;28;117934;-60
2021/04/06 05:51:40;;;;;;;2.05;0.57;;;;;;;9.30;50.30;99769.00;4890486;28;99760;-60
2021/04/06 05:54:09;;;;;;;2.10;0.50;;;;;;;9.46;50.22;99758.16;4822053;28;97900;-60
2021/04/06 05:56:35;;;;;;;1.60;0.60;;;;;;;9.69;49.79;99762.09;4865723;28;99437;-63
2021/04/06 05:59:01;;;;;;;2.08;0.47;;;;;;;9.95;49.59;99768.13;4846778;28;119689;-60
2021/04/06 06:01:28;;;;;;;1.98;0.43;;;;;;;9.83;49.96;99763.09;4852741;28;98390;-63
2021/04/06 06:03:55;;;;;;;1.60;0.50;;;;;;;9.62;50.48;99778.53;4837852;28;98303;-63
2021/04/06 06:06:22;;;;;;;1.98;0.57;;;;;;;9.47;51.42;99771.34;4837404;28;98557;-64
2021/04/06 06:09:00;;;;;;;2.00;0.40;;;;;;;9.41;51.82;99777.81;4841410;28;98765;-60
2021/04/06 06:11:26;;;;;;;2.17;0.60;;;;;;;9.32;51.92;99774.13;4837286;28;97974;-63
2021/04/06 06:13:52;;;;;;;1.67;0.50;;;;;;;9.28;52.54;99773.84;4871910;28;98249;-63
2021/04/06 06:16:21;;;;;;;1.45;0.45;;;;;;;9.24;53.17;99783.56;4839247;28;98136;-60
2021/04/06 06:19:05;;;;;;;1.58;0.60;;;;;;;9.15;52.98;99774.41;4839173;28;99620;-63
2021/04/06 06:21:47;;;;;;;1.55;0.57;;;;;;;9.12;53.63;99772.31;4838832;28;98216;-59
2021/04/06 06:24:28;;;;;;;1.50;0.57;;;;;;;9.06;54.13;99770.69;4852245;28;98042;-63
2021/04/06 06:26:57;;;;;;;2.08;0.52;;;;;;;9.06;53.60;99776.88;4852123;28;99220;-60
2021/04/06 06:29:26;;;;;;;2.45;0.75;;;;;;;9.02;53.95;99770.44;4841216;28;99673;-63
2021/04/06 06:31:55;;;;;;;1.80;0.70;;;;;;;8.92;54.20;99772.34;4838778;28;97787;-60
2021/04/06 06:34:28;;;;;;;2.63;0.60;;;;;;;8.95;54.17;99780.66;4838618;28;97889;-63
2021/04/06 06:37:06;;;;;;;2.20;0.70;;;;;;;8.94;54.11;99772.88;4841212;28;97985;-63
2021/04/06 06:39:34;;;;;;;2.03;0.63;;;;;;;9.03;53.69;99772.03;4837975;28;99038;-63
2021/04/06 06:42:05;;;;;;;2.72;0.93;;;;;;;9.24;53.19;99767.41;4838752;28;98242;-63
2021/04/06 06:44:32;;;;;;;1.77;0.80;;;;;;;9.76;51.61;99774.16;4838537;28;98022;-63
2021/04/06 06:47:24;;;;;;;1.63;0.70;;;;;;;9.72;52.57;99761.53;4838801;28;98683;-60
2021/04/06 06:49:53;;;;;;;2.08;0.65;;;;;;;10.03;51.24;99764.84;4832295;28;110403;-63
2021/04/06 06:52:22;;;;;;;2.15;0.73;;;;;;;10.51;50.67;99770.41;4838045;28;98336;-64
2021/04/06 06:54:55;;;;;;;3.03;0.73;;;;;;;10.60;50.51;99765.19;4837669;28;97935;-60
2021/04/06 06:57:28;;;;;;;2.22;0.93;;;;;;;10.91;49.89;99766.50;4856235;28;99181;-63
2021/04/06 06:59:54;;;;;;;2.58;0.73;;;;;;;11.33;48.60;99766.84;4837976;28;99189;-63
2021/04/06 07:02:27;;;;;;;2.60;0.75;;;;;;;11.59;48.38;99759.19;4851907;28;126673;-64
2021/04/06 07:05:14;;;;;;;2.10;0.80;;;;;;;11.78;48.23;99757.31;4843878;28;105322;-60
2021/04/06 07:08:03;;;;;;;1.65;0.55;;;;;;;11.71;48.68;99751.47;4827469;28;100811;-63
2021/04/06 07:10:49;;;;;;;2.55;0.75;;;;;;;11.57;48.55;99751.41;4840537;28;99729;-60
2021/04/06 07:13:19;;;;;;;2.00;0.77;;;;;;;11.49;50.14;99747.44;4823271;28;97910;-60
2021/04/06 07:15:47;;;;;;;1.88;0.68;;;;;;;11.68;49.95;99746.66;4839358;28;98566;-60
2021/04/06 07:18:20;;;;;;;1.85;0.60;;;;;;;11.72;50.08;99748.50;4856768;28;98909;-63
2021/04/06 07:20:50;;;;;;;;;;;;;;;11.95;49.11;99744.13;4860320;28;98894;-60
2021/04/06 07:24:02;;;;;;;2.72;1.10;;;;;;;11.79;49.87;99750.84;4850675;28;98033;-61
2021/04/06 07:26:30;;;;;;;2.22;0.80;;;;;;;11.53;50.64;99747.69;4844323;28;98158;-64
2021/04/06 07:28:59;;;;;;;2.13;0.80;;;;;;;11.32;51.14;99752.53;4840815;28;98774;-63
2021/04/06 07:31:25;;;;;;;2.50;0.70;;;;;;;11.17;51.21;99756.22;4838200;28;114659;-63
2021/04/06 07:33:52;;;;;;;1.80;0.80;;;;;;;11.15;51.49;99755.69;4839856;28;122344;-60
2021/04/06 07:36:26;;;;;;;2.25;0.80;;;;;;;11.02;52.46;99740.22;4840984;28;98382;-60
2021/04/06 07:38:55;;;;;;;1.90;0.65;;;;;;;10.99;52.27;99756.97;4840510;28;110751;-60
2021/04/06 07:41:24;;;;;;;2.80;1.05;;;;;;;11.14;51.90;99750.59;4854206;28;98403;-60
2021/04/06 07:43:55;;;;;;;2.55;1.10;;;;;;;11.30;51.61;99749.31;4838881;28;98461;-60
2021/04/06 07:46:33;;;;;;;2.22;0.80;;;;;;;11.71;51.45;99743.38;4840746;28;97950;-60
2021/04/06 07:49:03;;;;;;;1.88;1.00;;;;;;;12.21;49.61;99747.22;4840813;28;98747;-60
2021/04/06 07:51:31;;;;;;;2.13;0.93;;;;;;;12.37;49.13;99742.38;4839067;28;98575;-60
2021/04/06 07:54:34;;;;;;;2.67;1.00;;;;;;;12.45;49.01;99746.28;4840017;28;98376;-60
2021/04/06 07:57:01;;;;;;;2.30;0.90;;;;;;;13.80;46.02;99734.16;4864142;28;97821;-64
2021/04/06 07:59:27;;;;;;;2.55;0.75;;;;;;;14.68;44.39;99720.06;4840321;28;97961;-64
2021/04/06 08:01:56;;;;;;;3.33;0.88;;;;;;;16.00;42.55;99720.03;4840495;28;98284;-64
2021/04/06 08:04:27;;;;;;;1.90;1.10;;;;;;;16.07;42.72;99725.75;4873063;28;99877;-61
2021/04/06 08:06:57;;;;;;;2.03;1.40;;;;;;;17.10;40.03;99715.72;4840196;28;105850;-64
2021/04/06 08:09:31;;;;;;;3.45;1.30;;;;;;;16.98;40.68;99721.03;4839989;28;97806;-60
2021/04/06 08:12:28;;;;;;;1.92;1.10;;;;;;;18.54;38.43;99717.09;4838010;28;99333;-64
2021/04/06 08:15:07;;;;;;;1.63;0.95;;;;;;;19.06;37.89;99716.50;4852942;28;98555;-64
2021/04/06 08:17:33;;;;;;;1.73;0.90;;;;;;;19.43;37.16;99720.00;4840557;28;98116;-60
2021/04/06 08:20:36;;;;;;;2.28;1.17;;;;;;;18.19;39.80;99722.91;4857776;28;99108;-64
2021/04/06 08:23:35;;;;;;;3.72;1.23;;;;;;;18.15;39.94;99739.16;4840206;28;98968;-60
2021/04/06 08:26:01;;;;;;;2.58;1.25;;;;;;;18.73;38.55;99722.84;4838646;28;98237;-61
2021/04/06 08:28:32;;;;;;;1.70;1.17;;;;;;;20.46;35.60;99721.34;4840981;28;97966;-65
2021/04/06 08:31:19;;;;;;;1.70;1.20;;;;;;;21.83;33.81;99729.69;4838553;28;98217;-61
2021/04/06 08:33:45;;;;;;;1.85;1.15;;;;;;;22.06;34.27;99721.53;4838428;28;99644;-61
2021/04/06 08:36:13;;;;;;;2.47;1.10;;;;;;;22.63;33.64;99716.31;4839375;28;98532;-64
2021/04/06 08:38:38;;;;;;;1.75;1.13;;;;;;;21.76;35.40;99741.28;4855078;28;97950;-61
2021/04/06 08:41:08;;;;;;;1.23;0.90;;;;;;;21.72;35.37;99736.91;4842096;28;98076;-61
2021/04/06 08:43:46;;;;;;;2.03;1.00;;;;;;;20.48;37.01;99757.38;4845020;28;98357;-61
2021/04/06 08:46:15;;;;;;;2.20;1.50;;;;;;;20.18;36.69;99754.22;4837290;28;99792;-64
2021/04/06 08:48:48;;;;;;;2.53;1.40;;;;;;;22.77;32.89;99742.06;4843920;28;98111;-61
2021/04/06 08:51:31;;;;;;;1.80;1.00;;;;;;;21.64;35.88;99741.44;4839313;28;100042;-66
2021/04/06 08:54:22;;;;;;;1.80;1.17;;;;;;;19.86;38.18;99746.69;4844132;28;98814;-64
2021/04/06 08:56:50;;;;;;;2.83;1.63;;;;;;;18.71;38.88;99759.84;4867292;28;98522;-64
2021/04/06 08:59:25;;;;;;;2.53;1.75;;;;;;;21.49;34.66;99737.56;4841783;28;98021;-64
2021/04/06 09:01:54;;;;;;;2.15;1.60;;;;;;;23.32;31.86;99735.50;4838702;28;99074;-61
2021/04/06 09:04:24;;;;;;;1.75;1.10;;;;;;;22.06;34.07;99741.53;4841994;28;98749;-65
2021/04/06 09:06:51;;;;;;;1.60;1.10;;;;;;;20.63;37.46;99762.09;4840235;28;98039;-64
2021/04/06 09:09:28;;;;;;;2.80;1.70;;;;;;;21.73;34.70;99749.44;4846790;28;98162;-64
2021/04/06 09:11:56;;;;;;;2.75;1.30;;;;;;;24.20;30.58;99741.38;4839591;28;98661;-61
2021/04/06 09:14:23;;;;;;;2.10;0.98;;;;;;;25.65;29.04;99731.97;4841037;28;100414;-61
2021/04/06 09:16:53;;;;;;;2.30;0.80;;;;;;;27.56;26.80;99733.84;4840984;28;98315;-61
2021/04/06 09:19:20;;;;;;;2.17;0.90;;;;;;;28.42;26.11;99739.06;4841368;28;98020;-61
2021/04/06 09:21:57;;;;;;;2.78;0.80;;;;;;;27.32;29.31;99744.56;4864572;28;97839;-62
2021/04/06 09:24:24;;;;;;;1.98;0.70;;;;;;;26.77;29.29;99736.69;4853422;28;98787;-61
2021/04/06 09:26:52;;;;;;;1.00;0.50;;;;;;;25.37;31.92;99753.88;4858622;28;98084;-65
2021/04/06 09:29:21;;;;;;;1.48;0.80;;;;;;;25.59;30.98;99750.09;4844340;28;98531;-65
2021/04/06 09:31:53;;;;;;;2.15;0.57;;;;;;;26.18;28.97;99741.69;4839461;28;112496;-61
2021/04/06 09:34:27;;;;;;;1.95;0.85;;;;;;;26.60;28.93;99741.00;4860827;28;98287;-61
2021/04/06 09:37:03;;;;;;;1.70;0.95;;;;;;;29.46;24.80;99745.31;4838459;28;120754;-61
2021/04/06 09:39:30;;;;;;;2.42;0.88;;;;;;;31.00;23.11;99741.28;4867142;28;98208;-65
2021/04/06 09:41:56;;;;;;;1.63;0.60;;;;;;;27.91;28.26;99748.78;4846614;28;98630;-61
2021/04/06 09:44:25;;;;;;;1.45;0.70;;;;;;;25.50;32.17;99751.59;4840345;28;109126;-65
2021/04/06 09:47:00;;;;;;;1.40;0.70;;;;;;;23.94;32.98;99755.25;4844230;28;99084;-61
2021/04/06 09:49:43;;;;;;;1.80;0.77;;;;;;;24.43;31.21;99737.72;4821829;28;97905;-65
2021/04/06 09:52:28;;;;;;;1.90;0.80;;;;;;;23.16;33.09;99747.44;4863578;28;104443;-61
2021/04/06 09:55:09;;;;;;;1.98;0.82;;;;;;;21.95;34.65;99754.22;4860082;28;98600;-60
2021/04/06 09:57:38;;;;;;;2.53;1.10;;;;;;;20.96;35.48;99747.28;4841548;28;98080;-65
2021/04/06 10:00:21;;;;;;;2.35;0.88;;;;;;;20.01;36.33;99758.84;4853526;28;98180;-64
2021/04/06 10:03:08;;;;;;;3.60;1.30;;;;;;;20.11;36.43;99757.53;4852010;28;98288;-64
2021/04/06 10:05:35;;;;;;;2.85;1.55;;;;;;;20.53;35.90;99746.19;4862312;28;98294;-60
2021/04/06 10:08:01;;;;;;;3.47;1.40;;;;;;;19.63;37.50;99755.75;4837404;28;97947;-63
2021/04/06 10:10:30;;;;;;;4.03;1.58;;;;;;;18.71;38.38;99752.44;4886652;28;97908;-60
2021/04/06 10:12:58;;;;;;;1.87;1.23;;;;;;;18.11;38.53;99751.88;4010364;28;10000614;-64
2021/04/06 10:15:29;;;;;;;2.42;1.52;;;;;;;20.43;34.80;99743.94;4816413;28;98209;-64
2021/04/06 10:17:55;;;;;;;2.38;1.40;;;;;;;24.34;29.47;99715.19;4818796;28;98414;-64
2021/04/06 10:20:25;;;;;;;1.83;1.00;;;;;;;27.14;25.70;99711.41;4838957;28;98625;-65
2021/04/06 10:22:53;;;;;;;2.45;1.13;;;;;;;24.84;29.44;99721.97;4819080;28;113585;-60
2021/04/06 10:25:22;;;;;;;2.65;0.80;;;;;;;22.93;32.91;99730.97;4818855;28;100395;-64
2021/04/06 10:27:54;;;;;;;1.73;0.73;;;;;;;22.05;33.95;99715.25;4818752;28;98596;-65
2021/04/06 10:30:34;;;;;;;1.58;0.60;;;;;;;25.18;28.47;99697.81;4825758;28;99149;-64
2021/04/06 10:33:20;;;;;;;1.38;0.50;;;;;;;22.88;32.19;99716.75;4817331;28;97990;-60
2021/04/06 10:35:51;;;;;;;1.98;0.82;;;;;;;25.14;28.83;99705.28;4816671;28;97973;-64
2021/04/06 10:38:23;;;;;;;2.33;0.80;;;;;;;28.10;24.32;99693.72;4830777;28;111824;-61
2021/04/06 10:41:10;;;;;;;2.13;0.77;;;;;;;30.26;22.51;99690.41;4871824;28;99401;-65
2021/04/06 10:43:45;;;;;;;2.45;0.60;;;;;;;31.84;21.14;99696.78;4849368;28;98249;-65
2021/04/06 10:46:14;;;;;;;2.45;0.70;;;;;;;33.15;20.18;99700.47;4818615;28;98098;-61
2021/04/06 10:48:51;;;;;;;1.15;0.50;;;;;;;34.17;19.33;99695.19;4845360;28;98587;-62
2021/04/06 10:51:23;;;;;;;1.42;0.52;;;;;;;35.04;18.35;99688.38;4817323;28;100523;-61
2021/04/06 10:53:53;;;;;;;2.33;0.60;;;;;;;34.50;19.23;99678.19;4822658;28;98753;-63
2021/04/06 10:56:31;;;;;;;3.40;0.50;;;;;;;34.69;19.20;99663.16;4828931;28;98190;-63
2021/04/06 10:59:01;;;;;;;1.10;0.30;;;;;;;32.27;22.42;99674.34;4815183;28;98174;-59
2021/04/06 11:01:46;;;;;;;1.45;0.40;;;;;;;33.49;20.97;99668.47;4818145;28;98788;-63
2021/04/06 11:04:17;;;;;;;2.30;0.50;;;;;;;33.69;20.04;99653.09;4818162;28;97914;-59
2021/04/06 11:07:02;;;;;;;2.30;0.45;;;;;;;32.71;21.16;99655.38;4817536;28;98317;-59
2021/04/06 11:09:38;;;;;;;1.35;0.50;;;;;;;32.55;22.05;99650.59;4830201;28;99255;-63
2021/04/06 11:12:06;;;;;;;1.15;0.40;;;;;;;32.01;22.29;99637.13;4824372;28;98286;-63
2021/04/06 11:14:32;;;;;;;1.80;0.47;;;;;;;29.43;25.21;99640.69;4817277;28;98572;-63
2021/04/06 11:17:01;;;;;;;1.92;0.40;;;;;;;27.86;27.38;99639.22;4819192;28;97815;-58
2021/04/06 11:19:32;;;;;;;1.77;0.47;;;;;;;26.43;29.44;99639.53;4830700;28;99422;-64
2021/04/06 11:22:11;;;;;;;2.08;0.45;;;;;;;25.18;30.30;99639.91;4818712;28;98214;-61
2021/04/06 11:24:38;;;;;;;2.33;0.50;;;;;;;24.63;30.40;99637.16;4818148;28;97954;-60
2021/04/06 11:27:05;;;;;;;2.80;0.90;;;;;;;25.03;30.28;99632.72;4818888;28;97891;-65
2021/04/06 11:29:33;;;;;;;2.72;0.80;;;;;;;26.58;27.52;99613.50;4818619;28;99019;-60
2021/04/06 11:32:06;;;;;;;1.70;0.75;;;;;;;25.95;28.48;99621.34;4819043;28;98494;-60
2021/04/06 11:34:33;;;;;;;2.13;0.70;;;;;;;25.60;29.41;99618.44;4831978;28;99692;-61
2021/04/06 11:36:59;;;;;;;2.42;0.85;;;;;;;25.00;30.42;99614.22;4818309;28;97956;-60
2021/04/06 11:39:27;;;;;;;2.15;0.73;;;;;;;24.00;32.12;99633.44;4853809;28;113936;-64
2021/04/06 11:41:53;;;;;;;2.15;0.70;;;;;;;23.12;33.27;99622.94;4818363;28;98711;-64
2021/04/06 11:44:20;;;;;;;1.65;0.80;;;;;;;22.00;33.91;99655.16;4817324;28;127235;-60
2021/04/06 11:46:46;;;;;;;2.05;0.70;;;;;;;20.93;34.72;99677.56;4832685;28;102866;-64
2021/04/06 11:49:13;;;;;;;1.75;0.75;;;;;;;19.85;36.51;99709.56;4817452;28;98437;-60
2021/04/06 11:51:39;;;;;;;1.83;0.60;;;;;;;18.78;38.24;99727.28;4821823;28;110333;-64
2021/04/06 11:54:07;;;;;;;2.08;0.80;;;;;;;17.85;39.30;99730.31;4860781;28;103632;-63
2021/04/06 11:56:33;;;;;;;2.08;0.77;;;;;;;17.14;40.59;99728.34;4822613;28;98143;-63